sensor_id;sensor_type;location;lat;lon;timestamp;pressure;altitude;pressure_sealevel;temperature;humidity
74372;BME280;62885;51.374;6.170;2023-02-27T00:00:19;102515.00;;;-0.19;79.46
74372;BME280;62885;51.374;6.170;2023-02-27T00:02:47;102519.38;;;-0.13;79.29
74372;BME280;62885;51.374;6.170;2023-02-27T00:05:13;102512.38;;;-0.20;79.43
74372;BME280;62885;51.374;6.170;2023-02-27T00:07:39;102509.72;;;-0.23;79.41
74372;BME280;62885;51.374;6.170;2023-02-27T00:10:07;102530.78;;;-0.23;79.67
74372;BME280;62885;51.374;6.170;2023-02-27T00:12:33;102518.50;;;-0.21;79.44
74372;BME280;62885;51.374;6.170;2023-02-27T00:15:10;102529.03;;;-0.26;79.59
74372;BME280;62885;51.374;6.170;2023-02-27T00:17:36;102513.28;;;-0.36;79.89
74372;BME280;62885;51.374;6.170;2023-02-27T00:20:02;102524.66;;;-0.34;80.07
74372;BME280;62885;51.374;6.170;2023-02-27T00:22:27;102523.81;;;-0.30;79.60
74372;BME280;62885;51.374;6.170;2023-02-27T00:24:53;102520.28;;;-0.29;79.88
74372;BME280;62885;51.374;6.170;2023-02-27T00:27:18;102523.78;;;-0.29;79.81
74372;BME280;62885;51.374;6.170;2023-02-27T00:29:44;102518.53;;;-0.33;80.19
74372;BME280;62885;51.374;6.170;2023-02-27T00:32:09;102518.53;;;-0.35;80.14
74372;BME280;62885;51.374;6.170;2023-02-27T00:34:34;102522.94;;;-0.42;80.12
74372;BME280;62885;51.374;6.170;2023-02-27T00:37:00;102522.91;;;-0.40;79.93
74372;BME280;62885;51.374;6.170;2023-02-27T00:39:25;102521.19;;;-0.46;79.89
74372;BME280;62885;51.374;6.170;2023-02-27T00:41:50;102514.16;;;-0.47;80.48
74372;BME280;62885;51.374;6.170;2023-02-27T00:44:16;102522.06;;;-0.50;80.67
74372;BME280;62885;51.374;6.170;2023-02-27T00:46:41;102521.22;;;-0.55;80.74
74372;BME280;62885;51.374;6.170;2023-02-27T00:49:06;102519.44;;;-0.54;80.68
74372;BME280;62885;51.374;6.170;2023-02-27T00:51:32;102521.22;;;-0.53;81.04
74372;BME280;62885;51.374;6.170;2023-02-27T00:53:57;102519.44;;;-0.50;81.06
74372;BME280;62885;51.374;6.170;2023-02-27T00:56:23;102516.81;;;-0.60;80.67
74372;BME280;62885;51.374;6.170;2023-02-27T00:58:48;102522.06;;;-0.57;81.02
74372;BME280;62885;51.374;6.170;2023-02-27T01:01:13;102520.31;;;-0.63;80.75
74372;BME280;62885;51.374;6.170;2023-02-27T01:03:39;102520.34;;;-0.61;81.02
74372;BME280;62885;51.374;6.170;2023-02-27T01:06:05;102522.94;;;-0.63;81.29
74372;BME280;62885;51.374;6.170;2023-02-27T01:08:30;102518.56;;;-0.68;81.62
74372;BME280;62885;51.374;6.170;2023-02-27T01:10:56;102512.44;;;-0.67;81.34
74372;BME280;62885;51.374;6.170;2023-02-27T01:13:21;102517.72;;;-0.72;81.77
74372;BME280;62885;51.374;6.170;2023-02-27T01:15:47;102519.47;;;-0.72;81.57
74372;BME280;62885;51.374;6.170;2023-02-27T01:18:12;102519.47;;;-0.77;81.33
74372;BME280;62885;51.374;6.170;2023-02-27T01:20:38;102511.56;;;-0.78;81.46
74372;BME280;62885;51.374;6.170;2023-02-27T01:23:03;102529.97;;;-0.82;82.53
74372;BME280;62885;51.374;6.170;2023-02-27T01:25:28;102525.59;;;-0.81;82.20
74372;BME280;62885;51.374;6.170;2023-02-27T01:27:54;102524.72;;;-0.83;81.56
74372;BME280;62885;51.374;6.170;2023-02-27T01:30:19;102520.31;;;-0.87;82.72
74372;BME280;62885;51.374;6.170;2023-02-27T01:32:44;102521.22;;;-0.90;82.81
74372;BME280;62885;51.374;6.170;2023-02-27T01:35:10;102524.72;;;-0.91;82.08
74372;BME280;62885;51.374;6.170;2023-02-27T01:37:35;102515.09;;;-0.95;82.51
74372;BME280;62885;51.374;6.170;2023-02-27T01:40:01;102515.09;;;-0.96;83.21
74372;BME280;62885;51.374;6.170;2023-02-27T01:42:27;102514.22;;;-1.01;83.11
74372;BME280;62885;51.374;6.170;2023-02-27T01:45:18;102516.84;;;-1.01;82.57
74372;BME280;62885;51.374;6.170;2023-02-27T01:47:49;102510.69;;;-0.97;83.73
74372;BME280;62885;51.374;6.170;2023-02-27T01:50:17;102514.22;;;-0.95;82.44
74372;BME280;62885;51.374;6.170;2023-02-27T01:52:44;102514.22;;;-0.95;82.70
74372;BME280;62885;51.374;6.170;2023-02-27T01:55:14;102522.09;;;-0.97;83.05
74372;BME280;62885;51.374;6.170;2023-02-27T01:57:42;102514.19;;;-0.98;83.45
74372;BME280;62885;51.374;6.170;2023-02-27T02:00:09;102522.09;;;-1.00;83.25
74372;BME280;62885;51.374;6.170;2023-02-27T02:02:38;102515.97;;;-1.02;83.15
74372;BME280;62885;51.374;6.170;2023-02-27T02:05:07;102515.06;;;-1.04;82.93
74372;BME280;62885;51.374;6.170;2023-02-27T02:07:34;102515.97;;;-1.06;82.94
74372;BME280;62885;51.374;6.170;2023-02-27T02:10:02;102520.34;;;-1.07;83.43
74372;BME280;62885;51.374;6.170;2023-02-27T02:12:32;102510.69;;;-1.05;83.25
74372;BME280;62885;51.374;6.170;2023-02-27T02:14:58;102510.69;;;-1.09;84.07
74372;BME280;62885;51.374;6.170;2023-02-27T02:17:57;102515.06;;;-1.10;83.71
74372;BME280;62885;51.374;6.170;2023-02-27T02:28:38;102512.44;;;-1.19;83.95
74372;BME280;62885;51.374;6.170;2023-02-27T02:44:21;102515.97;;;-1.17;84.08
74372;BME280;62885;51.374;6.170;2023-02-27T02:47:03;102515.06;;;-1.20;83.56
74372;BME280;62885;51.374;6.170;2023-02-27T02:49:42;102515.94;;;-1.20;84.19
74372;BME280;62885;51.374;6.170;2023-02-27T02:52:25;102517.69;;;-1.19;84.07
74372;BME280;62885;51.374;6.170;2023-02-27T02:55:04;102524.72;;;-1.18;84.24
74372;BME280;62885;51.374;6.170;2023-02-27T02:57:41;102526.44;;;-1.20;84.13
74372;BME280;62885;51.374;6.170;2023-02-27T03:00:16;102523.84;;;-1.18;84.28
74372;BME280;62885;51.374;6.170;2023-02-27T03:02:46;102514.19;;;-1.16;84.43
74372;BME280;62885;51.374;6.170;2023-02-27T03:05:19;102522.06;;;-1.27;84.58
74372;BME280;62885;51.374;6.170;2023-02-27T03:07:56;102528.19;;;-1.30;85.48
74372;BME280;62885;51.374;6.170;2023-02-27T03:10:29;102529.03;;;-1.34;85.02
74372;BME280;62885;51.374;6.170;2023-02-27T03:13:14;102524.66;;;-1.33;85.34
74372;BME280;62885;51.374;6.170;2023-02-27T03:16:14;102525.53;;;-1.37;85.42
74372;BME280;62885;51.374;6.170;2023-02-27T03:19:31;102534.28;;;-1.44;85.74
74372;BME280;62885;51.374;6.170;2023-02-27T03:22:14;102528.16;;;-1.43;84.90
74372;BME280;62885;51.374;6.170;2023-02-27T03:24:30;102536.03;;;-1.43;85.91
74372;BME280;62885;51.374;6.170;2023-02-27T03:26:56;102532.53;;;-1.42;85.12
74372;BME280;62885;51.374;6.170;2023-02-27T03:29:34;102536.03;;;-1.48;85.92
74372;BME280;62885;51.374;6.170;2023-02-27T03:32:07;102536.03;;;-1.46;84.93
74372;BME280;62885;51.374;6.170;2023-02-27T03:34:36;102536.00;;;-1.49;86.22
74372;BME280;62885;51.374;6.170;2023-02-27T03:37:43;102536.88;;;-1.50;85.46
74372;BME280;62885;51.374;6.170;2023-02-27T03:40:37;102538.63;;;-1.51;85.19
74372;BME280;62885;51.374;6.170;2023-02-27T03:46:04;102536.91;;;-1.46;85.98
74372;BME280;62885;51.374;6.170;2023-02-27T03:48:31;102529.91;;;-1.47;85.99
74372;BME280;62885;51.374;6.170;2023-02-27T03:50:58;102531.63;;;-1.55;84.82
74372;BME280;62885;51.374;6.170;2023-02-27T03:53:26;102536.88;;;-1.53;85.75
74372;BME280;62885;51.374;6.170;2023-02-27T03:55:55;102544.78;;;-1.52;86.20
74372;BME280;62885;51.374;6.170;2023-02-27T03:58:22;102542.16;;;-1.52;85.22
74372;BME280;62885;51.374;6.170;2023-02-27T04:00:48;102540.38;;;-1.56;84.83
74372;BME280;62885;51.374;6.170;2023-02-27T04:03:14;102539.50;;;-1.56;84.83
74372;BME280;62885;51.374;6.170;2023-02-27T04:05:39;102543.03;;;-1.48;85.27
74372;BME280;62885;51.374;6.170;2023-02-27T04:08:31;102542.16;;;-1.44;84.41
74372;BME280;62885;51.374;6.170;2023-02-27T04:14:06;102551.75;;;-1.54;85.78
74372;BME280;62885;51.374;6.170;2023-02-27T04:17:11;102554.41;;;-1.52;85.63
74372;BME280;62885;51.374;6.170;2023-02-27T04:20:16;102553.50;;;-1.60;84.93
74372;BME280;62885;51.374;6.170;2023-02-27T04:22:45;102556.97;;;-1.61;85.77
74372;BME280;62885;51.374;6.170;2023-02-27T04:33:45;102558.72;;;-1.67;86.03
74372;BME280;62885;51.374;6.170;2023-02-27T04:36:20;102563.97;;;-1.70;86.31
74372;BME280;62885;51.374;6.170;2023-02-27T04:39:16;102561.34;;;-1.71;87.01
74372;BME280;62885;51.374;6.170;2023-02-27T04:41:51;102569.22;;;-1.65;85.50
74372;BME280;62885;51.374;6.170;2023-02-27T04:44:20;102570.09;;;-1.71;86.17
74372;BME280;62885;51.374;6.170;2023-02-27T04:46:48;102574.50;;;-1.59;85.60
74372;BME280;62885;51.374;6.170;2023-02-27T04:49:35;102563.13;;;-1.64;86.08
74372;BME280;62885;51.374;6.170;2023-02-27T04:52:09;102562.25;;;-1.60;85.83
74372;BME280;62885;51.374;6.170;2023-02-27T04:57:36;102574.53;;;-1.54;85.57
74372;BME280;62885;51.374;6.170;2023-02-27T05:00:07;102572.78;;;-1.54;86.34
74372;BME280;62885;51.374;6.170;2023-02-27T05:02:39;102578.91;;;-1.53;85.29
74372;BME280;62885;51.374;6.170;2023-02-27T05:05:10;102575.38;;;-1.57;84.87
74372;BME280;62885;51.374;6.170;2023-02-27T05:07:41;102581.53;;;-1.53;85.69
74372;BME280;62885;51.374;6.170;2023-02-27T05:10:27;102583.28;;;-1.52;85.56
74372;BME280;62885;51.374;6.170;2023-02-27T05:13:03;102572.78;;;-1.51;85.23
74372;BME280;62885;51.374;6.170;2023-02-27T05:15:44;102584.19;;;-1.52;85.71
74372;BME280;62885;51.374;6.170;2023-02-27T05:18:15;102585.03;;;-1.57;86.01
74372;BME280;62885;51.374;6.170;2023-02-27T05:26:34;102585.00;;;-1.56;85.79
74372;BME280;62885;51.374;6.170;2023-02-27T05:31:52;102591.97;;;-1.66;85.64
74372;BME280;62885;51.374;6.170;2023-02-27T05:34:22;102594.63;;;-1.64;86.46
74372;BME280;62885;51.374;6.170;2023-02-27T05:36:58;102598.13;;;-1.60;86.72
74372;BME280;62885;51.374;6.170;2023-02-27T05:39:26;102600.78;;;-1.59;85.56
74372;BME280;62885;51.374;6.170;2023-02-27T05:41:59;102596.38;;;-1.64;86.60
74372;BME280;62885;51.374;6.170;2023-02-27T05:44:34;102602.50;;;-1.56;85.67
74372;BME280;62885;51.374;6.170;2023-02-27T05:47:06;102609.50;;;-1.61;85.43
74372;BME280;62885;51.374;6.170;2023-02-27T05:52:09;102610.38;;;-1.66;85.74
74372;BME280;62885;51.374;6.170;2023-02-27T05:57:25;102613.81;;;-1.74;85.03
74372;BME280;62885;51.374;6.170;2023-02-27T06:02:23;102614.69;;;-1.72;86.18
74372;BME280;62885;51.374;6.170;2023-02-27T06:04:48;102619.09;;;-1.70;85.50
74372;BME280;62885;51.374;6.170;2023-02-27T06:07:14;102619.09;;;-1.68;85.37
74372;BME280;62885;51.374;6.170;2023-02-27T06:09:41;102632.22;;;-1.68;86.01
74372;BME280;62885;51.374;6.170;2023-02-27T06:12:07;102636.56;;;-1.75;86.43
74372;BME280;62885;51.374;6.170;2023-02-27T06:14:33;102638.28;;;-1.81;85.11
74372;BME280;62885;51.374;6.170;2023-02-27T06:16:58;102645.22;;;-1.89;86.55
74372;BME280;62885;51.374;6.170;2023-02-27T06:19:23;102640.03;;;-1.83;86.46
74372;BME280;62885;51.374;6.170;2023-02-27T06:21:49;102640.84;;;-1.90;85.60
74372;BME280;62885;51.374;6.170;2023-02-27T06:24:14;102639.09;;;-1.93;86.47
74372;BME280;62885;51.374;6.170;2023-02-27T06:26:39;102645.22;;;-1.89;87.03
74372;BME280;62885;51.374;6.170;2023-02-27T06:29:05;102653.16;;;-1.83;86.06
74372;BME280;62885;51.374;6.170;2023-02-27T06:31:30;102653.09;;;-1.89;86.49
74372;BME280;62885;51.374;6.170;2023-02-27T06:33:56;102652.25;;;-1.87;86.27
74372;BME280;62885;51.374;6.170;2023-02-27T06:36:22;102655.97;;;-1.44;86.52
74372;BME280;62885;51.374;6.170;2023-02-27T06:38:47;102650.09;;;-0.61;83.06
74372;BME280;62885;51.374;6.170;2023-02-27T06:41:13;102661.47;;;0.02;79.60
74372;BME280;62885;51.374;6.170;2023-02-27T06:43:39;102658.69;;;0.69;76.07
74372;BME280;62885;51.374;6.170;2023-02-27T06:46:04;102664.06;;;0.26;75.76
74372;BME280;62885;51.374;6.170;2023-02-27T06:48:30;102665.81;;;-0.84;79.25
74372;BME280;62885;51.374;6.170;2023-02-27T06:50:55;102668.31;;;-1.21;82.59
74372;BME280;62885;51.374;6.170;2023-02-27T06:53:22;102663.81;;;-1.51;84.11
74372;BME280;62885;51.374;6.170;2023-02-27T06:55:47;102668.16;;;-1.61;85.37
74372;BME280;62885;51.374;6.170;2023-02-27T06:58:14;102676.00;;;-1.66;85.44
74372;BME280;62885;51.374;6.170;2023-02-27T07:00:39;102674.25;;;-1.65;85.50
74372;BME280;62885;51.374;6.170;2023-02-27T07:03:05;102677.81;;;-1.58;84.73
74372;BME280;62885;51.374;6.170;2023-02-27T07:05:30;102676.03;;;-1.61;86.39
74372;BME280;62885;51.374;6.170;2023-02-27T07:07:56;102683.88;;;-1.66;85.55
74372;BME280;62885;51.374;6.170;2023-02-27T07:10:23;102692.63;;;-1.67;86.77
74372;BME280;62885;51.374;6.170;2023-02-27T07:12:49;102687.38;;;-1.67;86.18
74372;BME280;62885;51.374;6.170;2023-02-27T07:15:15;102686.53;;;-1.59;85.48
74372;BME280;62885;51.374;6.170;2023-02-27T07:17:40;102693.47;;;-1.71;86.54
74372;BME280;62885;51.374;6.170;2023-02-27T07:20:08;102702.31;;;-1.58;85.88
74372;BME280;62885;51.374;6.170;2023-02-27T07:22:35;102696.19;;;-1.55;85.72
74372;BME280;62885;51.374;6.170;2023-02-27T07:25:00;102703.22;;;-1.50;85.48
74372;BME280;62885;51.374;6.170;2023-02-27T07:27:26;102701.50;;;-1.45;85.96
74372;BME280;62885;51.374;6.170;2023-02-27T07:29:51;102702.44;;;-1.35;84.92
74372;BME280;62885;51.374;6.170;2023-02-27T07:32:17;102712.09;;;-1.31;85.42
74372;BME280;62885;51.374;6.170;2023-02-27T07:34:42;102712.94;;;-1.32;85.56
74372;BME280;62885;51.374;6.170;2023-02-27T07:37:07;102720.84;;;-1.28;85.14
74372;BME280;62885;51.374;6.170;2023-02-27T07:39:33;102718.28;;;-1.15;84.85
74372;BME280;62885;51.374;6.170;2023-02-27T07:41:58;102720.94;;;-1.11;84.91
74372;BME280;62885;51.374;6.170;2023-02-27T07:44:24;102725.34;;;-1.04;84.38
74372;BME280;62885;51.374;6.170;2023-02-27T07:46:49;102724.47;;;-1.01;84.14
74372;BME280;62885;51.374;6.170;2023-02-27T07:49:15;102719.22;;;-0.97;84.66
74372;BME280;62885;51.374;6.170;2023-02-27T07:51:40;102720.13;;;-0.92;83.07
74372;BME280;62885;51.374;6.170;2023-02-27T07:54:05;102720.16;;;-0.89;83.18
74372;BME280;62885;51.374;6.170;2023-02-27T07:56:31;102722.75;;;-0.87;83.73
74372;BME280;62885;51.374;6.170;2023-02-27T07:58:56;102720.16;;;-0.82;82.74
74372;BME280;62885;51.374;6.170;2023-02-27T08:01:21;102724.53;;;-0.89;82.48
74372;BME280;62885;51.374;6.170;2023-02-27T08:03:47;102725.41;;;-0.89;82.64
74372;BME280;62885;51.374;6.170;2023-02-27T08:06:12;102728.94;;;-0.77;82.86
74372;BME280;62885;51.374;6.170;2023-02-27T08:08:38;102721.91;;;-0.86;82.87
74372;BME280;62885;51.374;6.170;2023-02-27T08:11:03;102720.16;;;-0.75;83.03
74372;BME280;62885;51.374;6.170;2023-02-27T08:13:29;102726.34;;;-0.65;82.66
74372;BME280;62885;51.374;6.170;2023-02-27T08:15:57;102725.50;;;-0.54;81.61
74372;BME280;62885;51.374;6.170;2023-02-27T08:18:22;102717.63;;;-0.54;81.89
74372;BME280;62885;51.374;6.170;2023-02-27T08:20:48;102724.63;;;-0.53;81.67
74372;BME280;62885;51.374;6.170;2023-02-27T08:23:13;102719.38;;;-0.44;81.37
74372;BME280;62885;51.374;6.170;2023-02-27T08:25:38;102722.03;;;-0.31;81.37
74372;BME280;62885;51.374;6.170;2023-02-27T08:28:04;102722.91;;;-0.25;80.93
74372;BME280;62885;51.374;6.170;2023-02-27T08:30:29;102727.28;;;-0.22;80.16
74372;BME280;62885;51.374;6.170;2023-02-27T08:32:55;102733.44;;;-0.13;79.91
74372;BME280;62885;51.374;6.170;2023-02-27T08:35:21;102736.06;;;-0.14;80.42
74372;BME280;62885;51.374;6.170;2023-02-27T08:37:47;102724.66;;;-0.12;79.86
74372;BME280;62885;51.374;6.170;2023-02-27T08:40:14;102739.59;;;-0.12;79.72
74372;BME280;62885;51.374;6.170;2023-02-27T08:42:39;102735.19;;;-0.09;79.96
74372;BME280;62885;51.374;6.170;2023-02-27T08:45:05;102734.34;;;-0.02;80.00
74372;BME280;62885;51.374;6.170;2023-02-27T08:47:30;102736.97;;;0.17;79.36
74372;BME280;62885;51.374;6.170;2023-02-27T08:49:56;102740.44;;;0.25;79.20
74372;BME280;62885;51.374;6.170;2023-02-27T08:52:22;102741.31;;;0.24;78.27
74372;BME280;62885;51.374;6.170;2023-02-27T08:54:47;102743.97;;;0.40;78.51
74372;BME280;62885;51.374;6.170;2023-02-27T08:57:12;102740.44;;;0.35;77.66
74372;BME280;62885;51.374;6.170;2023-02-27T08:59:38;102743.06;;;0.43;77.82
74372;BME280;62885;51.374;6.170;2023-02-27T09:02:03;102743.94;;;0.44;77.85
74372;BME280;62885;51.374;6.170;2023-02-27T09:04:28;102751.00;;;0.40;77.67
74372;BME280;62885;51.374;6.170;2023-02-27T09:06:54;102743.94;;;0.50;77.79
74372;BME280;62885;51.374;6.170;2023-02-27T09:09:20;102745.66;;;0.64;76.98
74372;BME280;62885;51.374;6.170;2023-02-27T09:11:48;102736.88;;;0.70;77.08
74372;BME280;62885;51.374;6.170;2023-02-27T09:14:13;102736.81;;;0.77;76.84
74372;BME280;62885;51.374;6.170;2023-02-27T09:16:39;102737.66;;;0.92;76.89
74372;BME280;62885;51.374;6.170;2023-02-27T09:19:04;102737.66;;;0.95;76.12
74372;BME280;62885;51.374;6.170;2023-02-27T09:21:30;102737.63;;;0.99;76.38
74372;BME280;62885;51.374;6.170;2023-02-27T09:23:55;102740.22;;;1.16;76.06
74372;BME280;62885;51.374;6.170;2023-02-27T09:26:23;102734.84;;;1.33;75.14
74372;BME280;62885;51.374;6.170;2023-02-27T09:28:48;102740.94;;;1.42;74.87
74372;BME280;62885;51.374;6.170;2023-02-27T09:31:14;102739.22;;;1.37;73.59
74372;BME280;62885;51.374;6.170;2023-02-27T09:33:39;102744.44;;;1.47;73.22
74372;BME280;62885;51.374;6.170;2023-02-27T09:36:05;102741.72;;;1.58;73.56
74372;BME280;62885;51.374;6.170;2023-02-27T09:38:32;102745.16;;;1.72;73.25
74372;BME280;62885;51.374;6.170;2023-02-27T09:40:58;102739.88;;;1.72;72.81
74372;BME280;62885;51.374;6.170;2023-02-27T09:43:35;102746.03;;;1.73;72.70
74372;BME280;62885;51.374;6.170;2023-02-27T09:46:01;102746.91;;;1.75;72.98
74372;BME280;62885;51.374;6.170;2023-02-27T09:48:56;102750.31;;;1.89;72.20
74372;BME280;62885;51.374;6.170;2023-02-27T09:51:22;102747.53;;;2.04;72.39
74372;BME280;62885;51.374;6.170;2023-02-27T09:53:51;102749.25;;;2.13;71.69
74372;BME280;62885;51.374;6.170;2023-02-27T09:56:32;102742.94;;;2.27;70.38
74372;BME280;62885;51.374;6.170;2023-02-27T09:59:12;102744.56;;;2.40;70.75
74372;BME280;62885;51.374;6.170;2023-02-27T10:02:17;102733.13;;;2.43;69.66
74372;BME280;62885;51.374;6.170;2023-02-27T10:10:22;102738.31;;;2.51;68.69
74372;BME280;62885;51.374;6.170;2023-02-27T10:12:54;102739.00;;;2.69;68.96
74372;BME280;62885;51.374;6.170;2023-02-27T10:15:30;102736.19;;;2.84;68.80
74372;BME280;62885;51.374;6.170;2023-02-27T10:18:32;102743.28;;;2.81;68.74
74372;BME280;62885;51.374;6.170;2023-02-27T10:21:04;102728.22;;;2.87;68.67
74372;BME280;62885;51.374;6.170;2023-02-27T10:23:42;102726.06;;;3.18;67.63
74372;BME280;62885;51.374;6.170;2023-02-27T10:26:24;102727.09;;;3.08;66.72
74372;BME280;62885;51.374;6.170;2023-02-27T10:28:50;102723.50;;;3.11;66.64
74372;BME280;62885;51.374;6.170;2023-02-27T10:31:28;102727.44;;;3.45;66.26
74372;BME280;62885;51.374;6.170;2023-02-27T10:33:56;102729.38;;;3.33;65.20
74372;BME280;62885;51.374;6.170;2023-02-27T10:36:22;102726.78;;;3.31;64.91
74372;BME280;62885;51.374;6.170;2023-02-27T10:38:59;102733.59;;;3.47;63.69
74372;BME280;62885;51.374;6.170;2023-02-27T10:41:25;102736.34;;;3.40;62.96
74372;BME280;62885;51.374;6.170;2023-02-27T10:43:55;102731.91;;;3.42;64.41
74372;BME280;62885;51.374;6.170;2023-02-27T10:46:26;102737.06;;;3.52;63.27
74372;BME280;62885;51.374;6.170;2023-02-27T10:48:52;102717.63;;;3.53;62.96
74372;BME280;62885;51.374;6.170;2023-02-27T10:53:46;102718.78;;;3.91;63.10
74372;BME280;62885;51.374;6.170;2023-02-27T10:56:21;102718.47;;;4.12;62.67
74372;BME280;62885;51.374;6.170;2023-02-27T10:59:01;102707.75;;;4.18;61.86
74372;BME280;62885;51.374;6.170;2023-02-27T11:01:44;102714.63;;;4.28;61.48
74372;BME280;62885;51.374;6.170;2023-02-27T11:04:11;102720.91;;;4.24;60.73
74372;BME280;62885;51.374;6.170;2023-02-27T11:06:37;102715.41;;;4.33;60.40
74372;BME280;62885;51.374;6.170;2023-02-27T11:11:43;102710.91;;;4.38;60.75
74372;BME280;62885;51.374;6.170;2023-02-27T11:16:51;102710.13;;;4.33;59.90
74372;BME280;62885;51.374;6.170;2023-02-27T11:22:06;102702.84;;;4.44;59.38
74372;BME280;62885;51.374;6.170;2023-02-27T11:24:34;102698.59;;;4.36;59.25
74372;BME280;62885;51.374;6.170;2023-02-27T11:27:03;102701.72;;;4.56;58.38
74372;BME280;62885;51.374;6.170;2023-02-27T11:29:33;102685.53;;;4.71;58.38
74372;BME280;62885;51.374;6.170;2023-02-27T11:32:03;102683.34;;;4.91;57.30
74372;BME280;62885;51.374;6.170;2023-02-27T11:34:40;102688.50;;;4.97;57.74
74372;BME280;62885;51.374;6.170;2023-02-27T11:37:43;102693.84;;;4.53;57.40
74372;BME280;62885;51.374;6.170;2023-02-27T11:40:15;102699.41;;;4.39;58.03
74372;BME280;62885;51.374;6.170;2023-02-27T11:42:46;102692.50;;;4.31;58.41
74372;BME280;62885;51.374;6.170;2023-02-27T11:47:47;102683.69;;;4.30;58.11
74372;BME280;62885;51.374;6.170;2023-02-27T11:52:58;102681.47;;;4.53;57.95
74372;BME280;62885;51.374;6.170;2023-02-27T11:55:30;102680.50;;;4.56;58.15
74372;BME280;62885;51.374;6.170;2023-02-27T11:58:19;102685.19;;;4.43;57.44
74372;BME280;62885;51.374;6.170;2023-02-27T12:00:57;102689.97;;;4.25;57.79
74372;BME280;62885;51.374;6.170;2023-02-27T12:06:16;102666.78;;;4.36;57.68
74372;BME280;62885;51.374;6.170;2023-02-27T12:08:54;102666.66;;;4.42;57.70
74372;BME280;62885;51.374;6.170;2023-02-27T12:13:58;102657.38;;;4.64;56.88
74372;BME280;62885;51.374;6.170;2023-02-27T12:16:45;102655.34;;;4.77;56.48
74372;BME280;62885;51.374;6.170;2023-02-27T12:19:19;102662.25;;;4.84;56.01
74372;BME280;62885;51.374;6.170;2023-02-27T12:21:50;102656.16;;;4.80;56.30
74372;BME280;62885;51.374;6.170;2023-02-27T12:24:23;102655.41;;;4.72;56.04
74372;BME280;62885;51.374;6.170;2023-02-27T12:27:04;102657.94;;;4.80;55.63
74372;BME280;62885;51.374;6.170;2023-02-27T12:29:38;102652.47;;;4.87;55.56
74372;BME280;62885;51.374;6.170;2023-02-27T12:32:25;102640.00;;;4.91;55.45
74372;BME280;62885;51.374;6.170;2023-02-27T12:35:16;102648.72;;;4.96;55.26
74372;BME280;62885;51.374;6.170;2023-02-27T12:37:42;102642.28;;;5.08;55.11
74372;BME280;62885;51.374;6.170;2023-02-27T12:40:16;102648.06;;;4.86;55.39
74372;BME280;62885;51.374;6.170;2023-02-27T12:49:01;102636.16;;;5.04;55.60
74372;BME280;62885;51.374;6.170;2023-02-27T13:00:31;102630.22;;;4.93;55.17
74372;BME280;62885;51.374;6.170;2023-02-27T13:06:15;102623.97;;;5.34;55.11
74372;BME280;62885;51.374;6.170;2023-02-27T13:12:28;102619.03;;;5.56;54.30
74372;BME280;62885;51.374;6.170;2023-02-27T13:15:25;102622.84;;;5.44;55.02
74372;BME280;62885;51.374;6.170;2023-02-27T13:18:21;102618.81;;;5.65;54.88
74372;BME280;62885;51.374;6.170;2023-02-27T13:21:24;102618.25;;;5.51;54.34
74372;BME280;62885;51.374;6.170;2023-02-27T13:24:05;102626.78;;;5.65;52.99
74372;BME280;62885;51.374;6.170;2023-02-27T13:26:39;102625.34;;;5.86;52.96
74372;BME280;62885;51.374;6.170;2023-02-27T13:29:12;102624.59;;;5.45;53.02
74372;BME280;62885;51.374;6.170;2023-02-27T13:34:25;102618.78;;;5.29;53.55
74372;BME280;62885;51.374;6.170;2023-02-27T13:37:05;102629.41;;;5.29;53.65
74372;BME280;62885;51.374;6.170;2023-02-27T13:45:03;102620.72;;;5.23;54.78
74372;BME280;62885;51.374;6.170;2023-02-27T13:47:39;102616.31;;;5.22;55.24
74372;BME280;62885;51.374;6.170;2023-02-27T13:52:43;102623.63;;;5.12;53.43
74372;BME280;62885;51.374;6.170;2023-02-27T13:55:28;102615.59;;;5.51;53.73
74372;BME280;62885;51.374;6.170;2023-02-27T13:57:59;102605.69;;;5.59;53.72
74372;BME280;62885;51.374;6.170;2023-02-27T14:00:28;102609.28;;;5.55;52.74
74372;BME280;62885;51.374;6.170;2023-02-27T14:02:58;102603.47;;;5.41;53.49
74372;BME280;62885;51.374;6.170;2023-02-27T14:05:46;102608.19;;;5.28;53.34
74372;BME280;62885;51.374;6.170;2023-02-27T14:08:20;102605.72;;;5.20;53.53
74372;BME280;62885;51.374;6.170;2023-02-27T14:10:54;102594.44;;;5.11;53.96
74372;BME280;62885;51.374;6.170;2023-02-27T14:22:02;102591.53;;;5.57;53.06
74372;BME280;62885;51.374;6.170;2023-02-27T14:24:58;102594.81;;;5.66;52.64
74372;BME280;62885;51.374;6.170;2023-02-27T14:27:38;102587.53;;;5.41;52.31
74372;BME280;62885;51.374;6.170;2023-02-27T14:32:54;102585.97;;;5.30;52.15
74372;BME280;62885;51.374;6.170;2023-02-27T14:35:21;102594.59;;;5.42;51.16
74372;BME280;62885;51.374;6.170;2023-02-27T14:37:47;102593.03;;;5.31;51.98
74372;BME280;62885;51.374;6.170;2023-02-27T14:40:26;102586.41;;;5.49;52.07
74372;BME280;62885;51.374;6.170;2023-02-27T14:43:07;102592.13;;;5.69;52.20
74372;BME280;62885;51.374;6.170;2023-02-27T14:45:36;102585.25;;;5.59;50.89
74372;BME280;62885;51.374;6.170;2023-02-27T14:48:01;102581.84;;;5.54;49.95
74372;BME280;62885;51.374;6.170;2023-02-27T14:50:31;102582.22;;;5.41;51.15
74372;BME280;62885;51.374;6.170;2023-02-27T14:52:59;102594.47;;;5.46;51.92
74372;BME280;62885;51.374;6.170;2023-02-27T14:55:26;102580.44;;;5.41;52.27
74372;BME280;62885;51.374;6.170;2023-02-27T15:00:38;102585.47;;;5.16;53.59
74372;BME280;62885;51.374;6.170;2023-02-27T15:03:22;102575.00;;;5.46;53.18
74372;BME280;62885;51.374;6.170;2023-02-27T15:05:53;102598.81;;;5.49;52.72
74372;BME280;62885;51.374;6.170;2023-02-27T15:08:21;102594.75;;;5.35;52.71
74372;BME280;62885;51.374;6.170;2023-02-27T15:10:49;102596.81;;;5.23;52.51
74372;BME280;62885;51.374;6.170;2023-02-27T15:13:23;102604.94;;;5.15;51.75
74372;BME280;62885;51.374;6.170;2023-02-27T15:15:49;102598.50;;;5.25;52.38
74372;BME280;62885;51.374;6.170;2023-02-27T15:18:21;102597.47;;;5.31;52.30
74372;BME280;62885;51.374;6.170;2023-02-27T15:20:56;102600.53;;;5.51;52.22
74372;BME280;62885;51.374;6.170;2023-02-27T15:23:27;102601.28;;;5.56;50.42